KBOS/BOS METAR and TAF weather

Enter ICAO airport designator
Station Type Date Time Source
KBOS METAR 2021/07/24 19:54 UTC NOAA

KBOS 241954Z 10010KT 10SM FEW055 FEW250 24/16 A3008 RMK AO2 SLP186 T02440156


Station Type Date Time Source
KBOS Decoded METAR 2021/07/24 19:54 UTC NOAA

BOSTON LOGAN INTERNATIONAL, MA, United States (KBOS) 42-22N 071-01W 54M
Jul 24, 2021 - 03:54 PM EDT / 2021.07.24 1954 UTC
Wind: from the E (100 degrees) at 12 MPH (10 KT):0
Visibility: 10 mile(s):0
Sky conditions: mostly clear
Temperature: 75.9 F (24.4 C)
Dew Point: 60.1 F (15.6 C)
Relative Humidity: 57%
Pressure (altimeter): 30.08 in. Hg (1018 hPa)
ob: KBOS 241954Z 10010KT 10SM FEW055 FEW250 24/16 A3008 RMK AO2 SLP186 T02440156
cycle: 20

Station Type Date Time Source
KBOS TAF 2021/07/24 20:21 UTC NOAA

TAF
AMD KBOS 242018Z 2420/2524 12008KT P6SM FEW040
FM250100 19005KT P6SM FEW200
FM251000 20007KT 6SM -SHRA BR OVC035
FM251500 20012G20KT P6SM OVC020
FM251900 20014G22KT P6SM VCSH OVC015

Example: see airport list